Pocatello, ID

6:59 AM MDT on August 01, 2015 (GMT -0600)
plateau dr | | Change Station
CLOSE
Current Station
Personal Weather Station
Location: Pocatello, ID
Elevation: 4682 ft
Nearby Weather Stations

Elev 4682 ft 42.86 °N, 112.47 °W | Updated 9 minutes ago

Clear
Clear
51.8 °F
Feels Like 51.8 °F
N
0.0
Wind Variable Wind from SW

Today
High -- | Low -- °F
--% Chance of Precip.
Yesterday
High -- | Low -- °F
Precip. -- in
6:20 AM 8:50 PM
Full, 98% visible
Pressure 30.04 in
Visibility 10.0 miles
Clouds Clear
Dew Point 36 °F
Humidity 55%
Rainfall 0.00 in
Snow Depth Not available.
UV 0 out of 12
Pollen 5.80 out of 12
Air Quality Not available.
Flu Activity Not available.
METAR KPIH 011253Z 00000KT 10SM CLR 09/04 A3017 RMK AO2 SLP171 T00940044 $

More Conditions Fewer Conditions

Pressure 30.04 in
Visibility 10.0 miles
Clouds Clear
Dew Point 36 °F
Humidity 55%
Rainfall 0.00 in
Snow Depth Not available.
UV 0 out of 12
Pollen 5.80 out of 12
Air Quality Not available.
Flu Activity Not available.
METAR KPIH 011253Z 00000KT 10SM CLR 09/04 A3017 RMK AO2 SLP171 T00940044 $

More Conditions Fewer Conditions

10-Day Weather Forecast

×

Almanac

Astronomy

Aug. 01, 2015 Rise Set
Actual Time
Civil Twilight
Nautical Twilight
Astronomical Twilight
Moon
Length of Visible Light
Length of Day
Tomorrow will be .
, % of the Moon is Illuminated

Today's Extremes

State Highs State Lows

Community

WunderPhotos

Upload Photos

1,842,932 photos uploaded!

WunderBlogs® & News

Nearby

Air Quality

  Air Quality AQ Index Pollutant
Not available.

Snow Depth

Station Depth Elevation

Earthquake Activity

City Distance Mag. Time & Date
Minimum magnitude displayed is 2.5.

Coastal Water Temperatures

Place Temperature

Stations

Nearby Weather Stations

Station Location Temp. Windchill Dew Point Humidity Wind Precip. Elev Updated Type